Kota Kinabalu, Malaysia
Current Conditions -  °F | °C
As of 11:30 PM on Saturday 20 Dec 2014 (Local Time) from WBKK Reporting Station
Broken Clouds Broken Clouds  
Wind Chill: 26°   Ceiling: 26000
Heat Index: 28°   Visibility: 6mi
Dew Point: 26°   Wind: 5mph
Humidity: 100%   Direction: 100°E
Pressure: 29.8"   Gusts: NA
Location:  5.97°N, 116.07°E
Report Text: WBKK 201530Z 10004KT 060V140 9999 FEW014 SCT140 BKN260 26/26 Q1009 NOSIG
Loading
Personal Weather Stations






























Interactive Weather Map New forecast layout! Learn more

10-Day Weather Forecast

Advertisements
Track Severe Weather on mobile